Time;durP1;ratioP1;P1;durP2;ratioP2;P2;SDS_P1;SDS_P2;PMS_P1;PMS_P2;Temp;Humidity;BMP_temperature;BMP_pressure;BME280_temperature;BME280_humidity;BME280_pressure;Samples;Min_cycle;Max_cycle;Signal;HPM_P1;HPM_P2
2021/03/16 00:00:09;;;;;;;20.58;3.20;;;6.40;92.30;;;;;;5094757;28;20048;-87
2021/03/16 00:02:35;;;;;;;7.85;2.17;;;6.50;92.10;;;;;;5077650;28;20044;-88
2021/03/16 00:05:01;;;;;;;13.88;3.47;;;6.50;91.90;;;;;;5071300;28;20052;-87
2021/03/16 00:07:27;;;;;;;11.80;3.05;;;6.50;91.70;;;;;;5067872;28;20049;-87
2021/03/16 00:09:52;;;;;;;7.28;1.95;;;6.50;91.80;;;;;;5087938;28;20042;-87
2021/03/16 00:12:18;;;;;;;14.82;3.13;;;6.50;91.80;;;;;;5089974;28;20078;-87
2021/03/16 00:14:45;;;;;;;18.45;2.60;;;6.50;91.90;;;;;;5100431;28;20395;-87
2021/03/16 00:17:11;;;;;;;13.68;2.65;;;6.50;91.80;;;;;;5088284;28;20070;-87
2021/03/16 00:19:36;;;;;;;10.77;2.55;;;6.40;91.70;;;;;;5095843;28;20495;-86
2021/03/16 00:22:03;;;;;;;12.93;2.70;;;6.40;91.80;;;;;;5083816;28;20051;-87
2021/03/16 00:24:28;;;;;;;11.88;2.90;;;6.40;91.60;;;;;;5090251;28;20095;-86
2021/03/16 00:26:54;;;;;;;17.70;3.22;;;6.50;91.30;;;;;;5072122;28;20559;-87
2021/03/16 00:29:20;;;;;;;26.70;2.83;;;6.40;91.40;;;;;;5093720;28;20062;-87
2021/03/16 00:31:46;;;;;;;13.05;2.92;;;6.40;91.60;;;;;;5088219;28;20058;-87
2021/03/16 00:34:12;;;;;;;14.40;2.67;;;6.30;91.60;;;;;;5060256;28;20066;-87
2021/03/16 00:36:38;;;;;;;11.80;2.53;;;6.30;91.50;;;;;;5067962;28;20056;-90
2021/03/16 00:39:06;;;;;;;18.95;3.08;;;6.30;91.70;;;;;;5083846;28;20101;-87
2021/03/16 00:41:32;;;;;;;12.88;3.03;;;6.30;91.60;;;;;;5071736;28;20567;-88
2021/03/16 00:43:58;;;;;;;12.13;2.15;;;6.30;91.60;;;;;;5100199;28;20036;-87
2021/03/16 00:46:24;;;;;;;16.83;3.80;;;6.30;91.50;;;;;;5075423;28;20047;-86
2021/03/16 00:48:50;;;;;;;11.38;1.90;;;6.30;91.30;;;;;;5071977;28;20044;-87
2021/03/16 00:51:16;;;;;;;15.27;2.55;;;6.40;91.30;;;;;;5089458;28;20048;-87
2021/03/16 00:53:42;;;;;;;16.52;2.80;;;6.30;91.50;;;;;;5077103;28;20080;-89
2021/03/16 00:56:08;;;;;;;14.75;2.53;;;6.30;91.60;;;;;;5074264;28;20543;-87
2021/03/16 00:58:33;;;;;;;12.05;2.88;;;6.30;91.60;;;;;;5086243;28;20048;-87
2021/03/16 01:01:00;;;;;;;18.15;2.75;;;6.20;91.70;;;;;;5088161;28;20499;-87
2021/03/16 01:03:27;;;;;;;18.23;2.63;;;6.30;91.40;;;;;;5076066;28;20040;-87
2021/03/16 01:05:55;;;;;;;16.67;3.00;;;6.20;91.50;;;;;;5087029;28;20047;-87
2021/03/16 01:08:21;;;;;;;17.08;2.78;;;6.10;91.60;;;;;;5090541;28;20040;-87
2021/03/16 01:10:49;;;;;;;8.25;2.47;;;6.10;91.80;;;;;;5069510;28;20445;-89
2021/03/16 01:13:16;;;;;;;17.00;2.72;;;6.20;91.60;;;;;;5077222;28;20427;-87
2021/03/16 01:15:42;;;;;;;17.75;3.92;;;6.20;91.60;;;;;;5096448;27;20116;-89
2021/03/16 01:18:08;;;;;;;8.27;2.03;;;6.20;91.70;;;;;;5085399;28;20134;-87
2021/03/16 01:20:34;;;;;;;12.43;2.55;;;6.20;91.10;;;;;;5071996;28;20548;-87
2021/03/16 01:23:00;;;;;;;12.98;2.30;;;6.30;90.90;;;;;;5080528;28;20048;-87
2021/03/16 01:25:26;;;;;;;16.52;2.83;;;6.30;90.90;;;;;;5092399;28;20054;-87
2021/03/16 01:27:54;;;;;;;17.90;2.90;;;6.30;91.20;;;;;;5068153;28;20048;-87
2021/03/16 01:30:23;;;;;;;17.50;3.20;;;6.30;91.30;;;;;;5091821;28;20063;-87
2021/03/16 01:32:50;;;;;;;16.08;2.88;;;6.30;91.20;;;;;;5093880;28;20066;-87
2021/03/16 01:35:16;;;;;;;13.57;2.47;;;6.30;91.30;;;;;;5070481;28;20039;-87
2021/03/16 01:37:43;;;;;;;14.63;2.90;;;6.30;91.30;;;;;;5090255;28;20093;-89
2021/03/16 01:40:13;;;;;;;21.05;3.78;;;6.30;91.40;;;;;;5093193;28;20060;-87
2021/03/16 01:42:40;;;;;;;18.52;2.63;;;6.30;91.60;;;;;;5087759;28;20714;-89
2021/03/16 01:45:16;;;;;;;22.45;3.20;;;6.30;91.60;;;;;;5092497;28;20089;-87
2021/03/16 01:47:50;;;;;;;20.30;3.22;;;6.30;91.60;;;;;;5083374;28;20153;-88
2021/03/16 01:50:19;;;;;;;10.85;2.78;;;6.30;91.60;;;;;;5092974;28;20708;-87
2021/03/16 01:52:46;;;;;;;17.95;3.85;;;6.30;91.40;;;;;;5070476;28;20055;-87
2021/03/16 01:55:13;;;;;;;12.90;2.35;;;6.30;91.30;;;;;;5098819;28;20105;-86
2021/03/16 01:57:40;;;;;;;17.65;2.55;;;6.30;91.10;;;;;;5084912;28;20437;-87
2021/03/16 02:00:09;;;;;;;13.98;2.95;;;6.30;91.10;;;;;;5087070;28;20048;-86
2021/03/16 02:02:36;;;;;;;18.67;2.88;;;6.30;91.10;;;;;;5091513;28;20055;-87
2021/03/16 02:05:10;;;;;;;11.45;2.58;;;6.20;91.30;;;;;;5082224;28;20126;-87
2021/03/16 02:08:15;;;;;;;15.23;2.70;;;6.30;91.40;;;;;;5104256;28;20063;-85
2021/03/16 02:11:22;;;;;;;14.40;2.65;;;6.20;91.40;;;;;;5087705;28;20044;-88
2021/03/16 02:13:48;;;;;;;11.63;2.30;;;6.20;91.50;;;;;;5077173;28;20085;-87
2021/03/16 02:16:17;;;;;;;16.20;2.55;;;6.20;91.30;;;;;;5092013;28;20044;-88
2021/03/16 02:18:52;;;;;;;16.80;2.95;;;6.30;90.80;;;;;;5103683;28;20503;-89
2021/03/16 02:21:35;;;;;;;11.93;2.22;;;6.20;90.80;;;;;;5082290;28;20151;-87
2021/03/16 02:24:08;;;;;;;15.50;2.60;;;6.30;91.00;;;;;;5073811;28;20597;-87
2021/03/16 02:27:01;;;;;;;15.75;3.42;;;6.30;91.30;;;;;;5080237;28;20052;-88
2021/03/16 02:29:55;;;;;;;18.15;2.75;;;6.30;91.80;;;;;;5074212;28;20056;-86
2021/03/16 02:32:25;;;;;;;15.18;2.33;;;6.30;91.80;;;;;;5075621;28;20070;-86
2021/03/16 02:35:04;;;;;;;18.88;2.25;;;6.20;91.90;;;;;;5089082;28;20035;-86
2021/03/16 02:37:35;;;;;;;15.68;2.30;;;6.30;91.90;;;;;;5080655;28;20487;-87
2021/03/16 02:40:05;;;;;;;14.70;3.13;;;6.30;91.80;;;;;;5064305;28;20458;-87
2021/03/16 02:42:33;;;;;;;14.45;2.70;;;6.20;91.90;;;;;;5084042;28;20079;-87
2021/03/16 02:45:01;;;;;;;18.73;3.15;;;6.20;92.00;;;;;;5084365;28;20055;-87
2021/03/16 02:47:27;;;;;;;9.38;2.22;;;6.10;92.30;;;;;;5075728;28;20047;-87
2021/03/16 02:49:54;;;;;;;12.95;2.53;;;6.10;92.10;;;;;;5080980;28;20044;-87
2021/03/16 02:52:22;;;;;;;17.20;2.75;;;6.00;92.00;;;;;;5083982;28;20565;-88
2021/03/16 02:54:49;;;;;;;12.15;2.25;;;6.00;92.20;;;;;;5103193;28;20044;-88
2021/03/16 02:57:16;;;;;;;17.13;2.78;;;6.00;92.10;;;;;;5090789;28;20399;-87
2021/03/16 02:59:49;;;;;;;19.10;3.70;;;5.90;92.20;;;;;;5084247;28;20488;-90
2021/03/16 03:02:16;;;;;;;16.75;3.00;;;5.90;92.20;;;;;;5069318;28;20080;-87
2021/03/16 03:04:42;;;;;;;14.35;2.50;;;5.90;92.20;;;;;;5071784;28;20051;-89
2021/03/16 03:07:12;;;;;;;14.65;2.50;;;5.90;92.20;;;;;;5076179;28;20099;-87
2021/03/16 03:09:38;;;;;;;13.40;2.38;;;5.90;92.20;;;;;;5090947;28;20075;-89
2021/03/16 03:12:09;;;;;;;14.68;2.95;;;5.80;92.20;;;;;;5105828;28;20397;-86
2021/03/16 03:14:37;;;;;;;14.60;2.47;;;5.90;92.20;;;;;;5086560;28;20047;-86
2021/03/16 03:17:07;;;;;;;15.23;2.90;;;5.90;92.10;;;;;;5072116;28;20051;-87
2021/03/16 03:19:33;;;;;;;13.90;3.03;;;5.90;92.10;;;;;;5106669;28;20055;-87
2021/03/16 03:22:21;;;;;;;14.25;2.65;;;5.90;92.10;;;;;;5084335;28;20043;-88
2021/03/16 03:24:52;;;;;;;17.35;3.05;;;6.00;91.50;;;;;;5075925;28;20051;-88
2021/03/16 03:27:23;;;;;;;11.05;2.05;;;6.00;91.50;;;;;;5105858;28;20122;-87
2021/03/16 03:29:52;;;;;;;13.63;2.70;;;6.00;91.40;;;;;;5072157;28;20488;-87
2021/03/16 03:32:23;;;;;;;13.00;2.50;;;6.00;91.50;;;;;;5099934;28;20303;-87
2021/03/16 03:34:49;;;;;;;16.83;3.10;;;6.00;91.50;;;;;;5103328;28;20059;-87
2021/03/16 03:37:20;;;;;;;14.73;2.30;;;6.00;91.60;;;;;;5090946;28;20047;-87
2021/03/16 03:39:47;;;;;;;12.07;2.80;;;6.00;91.60;;;;;;5077340;28;20059;-86
2021/03/16 03:42:17;;;;;;;13.18;2.30;;;6.00;91.60;;;;;;5077299;28;20563;-87
2021/03/16 03:44:45;;;;;;;13.20;2.42;;;6.10;91.80;;;;;;5095265;28;20052;-87
2021/03/16 03:47:14;;;;;;;14.27;2.40;;;6.00;91.90;;;;;;5100912;28;20109;-87
2021/03/16 03:49:41;;;;;;;12.10;2.47;;;5.90;92.20;;;;;;5105603;27;20072;-90
2021/03/16 03:52:09;;;;;;;22.20;3.15;;;5.90;92.30;;;;;;5091184;28;20093;-85
2021/03/16 03:54:35;;;;;;;23.13;2.80;;;5.90;92.40;;;;;;5104865;28;20063;-87
2021/03/16 03:57:04;;;;;;;18.83;3.00;;;5.90;92.50;;;;;;5101729;28;20043;-87
2021/03/16 03:59:30;;;;;;;20.90;2.80;;;5.90;92.60;;;;;;5106750;28;20128;-86
2021/03/16 04:01:56;;;;;;;20.30;3.55;;;5.90;92.60;;;;;;5094982;28;20511;-87
2021/03/16 04:04:23;;;;;;;18.67;2.95;;;5.90;92.50;;;;;;5094050;28;20670;-87
2021/03/16 04:06:49;;;;;;;12.60;2.42;;;5.80;92.50;;;;;;5087110;28;20048;-87
2021/03/16 04:09:15;;;;;;;17.48;2.97;;;5.80;92.60;;;;;;5081240;28;20056;-87
2021/03/16 04:11:41;;;;;;;15.45;2.60;;;5.80;92.50;;;;;;5084986;28;20044;-88
2021/03/16 04:14:07;;;;;;;17.88;2.90;;;5.80;92.50;;;;;;5088092;28;20157;-87
2021/03/16 04:16:34;;;;;;;16.58;2.97;;;5.80;92.40;;;;;;5090180;28;20044;-87
2021/03/16 04:19:00;;;;;;;15.27;2.72;;;5.70;92.40;;;;;;5101196;28;20067;-87
2021/03/16 04:21:26;;;;;;;15.30;2.95;;;5.70;92.50;;;;;;5074197;27;20139;-87
2021/03/16 04:23:52;;;;;;;16.80;3.50;;;5.70;92.60;;;;;;5102665;28;20482;-86
2021/03/16 04:26:18;;;;;;;14.20;2.38;;;5.70;92.60;;;;;;5097655;28;20117;-87
2021/03/16 04:28:44;;;;;;;23.48;3.92;;;5.60;92.70;;;;;;5091231;28;20702;-87
2021/03/16 04:31:10;;;;;;;16.38;2.40;;;5.60;92.60;;;;;;5105313;28;20111;-87
2021/03/16 04:33:36;;;;;;;15.25;2.47;;;5.60;92.60;;;;;;5104208;28;20534;-88
2021/03/16 04:36:02;;;;;;;14.27;2.70;;;5.70;92.50;;;;;;5089260;28;20051;-87
2021/03/16 04:38:27;;;;;;;13.13;2.13;;;5.60;92.70;;;;;;5086922;28;20096;-87
2021/03/16 04:40:53;;;;;;;20.75;2.88;;;5.70;92.50;;;;;;5094931;28;20101;-86
2021/03/16 04:43:19;;;;;;;16.50;2.50;;;5.70;92.50;;;;;;5101591;27;20043;-86
2021/03/16 04:45:46;;;;;;;13.40;2.58;;;5.70;92.50;;;;;;5088271;28;20389;-87
2021/03/16 04:48:12;;;;;;;19.40;2.72;;;5.70;92.60;;;;;;5100213;28;20051;-87
2021/03/16 04:50:38;;;;;;;15.70;3.22;;;5.70;92.50;;;;;;5077134;28;20052;-89
2021/03/16 04:53:04;;;;;;;12.00;2.67;;;5.70;92.70;;;;;;5088688;28;20052;-87
2021/03/16 04:55:30;;;;;;;17.45;2.72;;;5.70;92.80;;;;;;5071203;28;20588;-87
2021/03/16 04:57:58;;;;;;;13.98;2.63;;;5.70;92.80;;;;;;5071221;28;20045;-87
2021/03/16 05:00:24;;;;;;;14.75;2.70;;;5.60;93.00;;;;;;5084372;28;20094;-86
2021/03/16 05:02:50;;;;;;;20.60;3.38;;;5.70;92.90;;;;;;5093174;28;20047;-87
2021/03/16 05:05:15;;;;;;;19.35;3.17;;;5.70;92.70;;;;;;5083097;28;20491;-87
2021/03/16 05:07:41;;;;;;;20.45;3.85;;;5.60;92.80;;;;;;5101082;28;20044;-86
2021/03/16 05:10:08;;;;;;;17.63;3.10;;;5.50;93.00;;;;;;5082157;28;20075;-89
2021/03/16 05:12:33;;;;;;;24.13;3.10;;;5.40;93.10;;;;;;5083170;28;20052;-87
2021/03/16 05:14:59;;;;;;;18.35;3.08;;;5.40;93.10;;;;;;5079567;28;20473;-88
2021/03/16 05:17:25;;;;;;;21.35;3.20;;;5.40;93.30;;;;;;5087856;28;20046;-88
2021/03/16 05:19:51;;;;;;;20.45;3.20;;;5.50;93.30;;;;;;5083447;28;20048;-88
2021/03/16 05:22:16;;;;;;;20.63;3.00;;;5.50;93.40;;;;;;5078544;28;20036;-87
2021/03/16 05:24:43;;;;;;;18.40;2.70;;;5.40;93.40;;;;;;5090378;28;20039;-85
2021/03/16 05:27:09;;;;;;;14.77;2.90;;;5.40;93.50;;;;;;5103232;28;20047;-87
2021/03/16 05:29:35;;;;;;;15.32;2.55;;;5.40;93.50;;;;;;5082883;28;20048;-88
2021/03/16 05:32:01;;;;;;;19.05;3.03;;;5.30;93.50;;;;;;5094318;28;20066;-87
2021/03/16 05:34:27;;;;;;;14.15;2.92;;;5.40;93.40;;;;;;5076723;28;20419;-87
2021/03/16 05:36:53;;;;;;;15.57;2.30;;;5.40;93.40;;;;;;5084763;28;20470;-86
2021/03/16 05:39:18;;;;;;;16.50;2.75;;;5.30;93.30;;;;;;5083188;28;20047;-86
2021/03/16 05:41:45;;;;;;;18.98;2.50;;;5.30;93.20;;;;;;5086104;28;20064;-88
2021/03/16 05:44:11;;;;;;;15.13;2.42;;;5.20;93.10;;;;;;5087757;28;20093;-88
2021/03/16 05:46:39;;;;;;;13.55;2.75;;;5.20;93.20;;;;;;5086076;28;20542;-88
2021/03/16 05:49:07;;;;;;;13.80;2.38;;;5.20;93.10;;;;;;5069749;28;20048;-87
2021/03/16 05:51:34;;;;;;;19.88;2.88;;;5.20;93.10;;;;;;5090189;28;20427;-89
2021/03/16 05:54:00;;;;;;;17.27;3.45;;;5.20;93.20;;;;;;5061120;28;20718;-89
2021/03/16 05:56:29;;;;;;;16.17;2.35;;;5.20;93.30;;;;;;5090758;28;20076;-89
2021/03/16 05:58:56;;;;;;;16.58;2.78;;;5.20;93.10;;;;;;5087767;28;20074;-89
2021/03/16 06:01:21;;;;;;;16.40;2.50;;;5.30;93.00;;;;;;5080349;28;20058;-89
2021/03/16 06:03:48;;;;;;;18.00;2.53;;;5.30;92.90;;;;;;5093102;28;20052;-87
2021/03/16 06:06:14;;;;;;;16.00;2.70;;;5.30;92.80;;;;;;5082958;28;20133;-89
2021/03/16 06:08:41;;;;;;;11.75;2.03;;;5.30;92.70;;;;;;5060441;28;20063;-90
2021/03/16 06:11:08;;;;;;;12.52;2.70;;;5.40;92.70;;;;;;5086298;28;20079;-89
2021/03/16 06:13:40;;;;;;;17.05;2.60;;;5.30;92.70;;;;;;5045295;28;20040;-89
2021/03/16 06:16:16;;;;;;;6.95;1.83;;;5.30;92.70;;;;;;5074664;28;20056;-89
2021/03/16 06:18:44;;;;;;;15.18;2.70;;;5.30;92.40;;;;;;5064008;28;20052;-89
2021/03/16 06:21:11;;;;;;;14.68;2.47;;;5.40;92.20;;;;;;5083455;28;20036;-89
2021/03/16 06:23:38;;;;;;;13.00;2.33;;;5.40;92.10;;;;;;5058035;28;20128;-89
2021/03/16 06:26:12;;;;;;;15.23;2.75;;;5.40;92.20;;;;;;5082828;28;20045;-89
2021/03/16 06:28:39;;;;;;;13.93;2.67;;;5.40;92.30;;;;;;5099376;28;20062;-90
2021/03/16 06:31:05;;;;;;;14.85;2.40;;;5.40;92.40;;;;;;5087515;28;20493;-89
2021/03/16 06:33:32;;;;;;;12.05;2.13;;;5.30;92.60;;;;;;5089628;28;20043;-86
2021/03/16 06:36:07;;;;;;;15.38;2.45;;;5.40;92.70;;;;;;5102585;28;20914;-86
2021/03/16 06:38:36;;;;;;;14.30;2.17;;;5.30;92.80;;;;;;5093863;28;20044;-86
2021/03/16 06:41:15;;;;;;;14.27;2.50;;;5.30;92.90;;;;;;5104540;28;20047;-85
2021/03/16 06:43:43;;;;;;;15.73;3.35;;;5.30;92.90;;;;;;5095326;28;20101;-86
2021/03/16 06:46:09;;;;;;;16.35;2.75;;;5.40;92.90;;;;;;5069521;28;20044;-85
2021/03/16 06:48:37;;;;;;;14.63;3.10;;;5.40;92.90;;;;;;5089274;28;20048;-86
2021/03/16 06:51:14;;;;;;;13.25;2.45;;;5.40;92.80;;;;;;5084562;28;20049;-86
2021/03/16 06:53:40;;;;;;;11.80;2.53;;;5.50;92.90;;;;;;5086103;28;20116;-90
2021/03/16 06:56:07;;;;;;;21.08;2.95;;;5.40;92.90;;;;;;5082328;28;20076;-89
2021/03/16 06:58:36;;;;;;;19.23;3.42;;;5.50;92.90;;;;;;5088514;28;20072;-88
2021/03/16 07:01:10;;;;;;;19.20;2.85;;;5.40;92.90;;;;;;5071064;28;20048;-87
2021/03/16 07:03:37;;;;;;;15.37;2.73;;;5.40;92.90;;;;;;5092689;28;20519;-89
2021/03/16 07:06:14;;;;;;;15.45;2.42;;;5.50;93.00;;;;;;5085474;28;20059;-87
2021/03/16 07:08:41;;;;;;;12.93;2.47;;;5.60;93.10;;;;;;5086867;28;20479;-89
2021/03/16 07:11:12;;;;;;;13.30;2.50;;;5.60;92.90;;;;;;5090944;28;20130;-87
2021/03/16 07:13:40;;;;;;;19.27;3.13;;;5.70;92.70;;;;;;5084966;28;20072;-87
2021/03/16 07:16:07;;;;;;;16.85;2.97;;;5.80;92.40;;;;;;5066424;28;20040;-87
2021/03/16 07:18:44;;;;;;;17.00;2.60;;;5.80;92.40;;;;;;5079873;28;20055;-85
2021/03/16 07:21:29;;;;;;;15.23;2.78;;;5.80;92.40;;;;;;5085550;28;20492;-86
2021/03/16 07:24:07;;;;;;;11.45;1.80;;;5.90;92.30;;;;;;5066641;28;20044;-86
2021/03/16 07:26:34;;;;;;;12.43;2.40;;;6.00;91.90;;;;;;5095686;28;20048;-86
2021/03/16 07:29:03;;;;;;;9.13;2.22;;;5.90;92.00;;;;;;5068521;28;20964;-85
2021/03/16 07:31:31;;;;;;;17.65;3.70;;;5.90;91.60;;;;;;5078140;28;20060;-86
2021/03/16 07:34:04;;;;;;;14.15;2.40;;;6.00;91.70;;;;;;5073023;28;20097;-86
2021/03/16 07:36:31;;;;;;;15.88;2.63;;;6.00;91.80;;;;;;5071801;28;20048;-88
2021/03/16 07:38:58;;;;;;;14.32;2.65;;;6.10;91.80;;;;;;5085216;28;20135;-88
2021/03/16 07:41:24;;;;;;;14.15;2.08;;;6.20;91.40;;;;;;5097570;28;20068;-87
2021/03/16 07:44:01;;;;;;;15.43;2.42;;;6.30;91.20;;;;;;5084363;28;20079;-90
2021/03/16 07:46:45;;;;;;;18.08;2.67;;;6.40;90.90;;;;;;5087752;28;20048;-89
2021/03/16 07:49:13;;;;;;;15.23;2.95;;;6.60;90.80;;;;;;5093890;27;20689;-89
2021/03/16 07:51:44;;;;;;;13.68;2.20;;;6.60;90.80;;;;;;5086422;28;20102;-88
2021/03/16 07:54:11;;;;;;;18.55;2.65;;;6.80;90.50;;;;;;5088764;28;20067;-89
2021/03/16 07:56:40;;;;;;;19.52;3.08;;;6.90;90.30;;;;;;5084595;28;20071;-88
2021/03/16 07:59:06;;;;;;;14.95;2.65;;;7.00;88.80;;;;;;5105557;27;20140;-88
2021/03/16 08:01:32;;;;;;;15.13;2.20;;;7.00;89.00;;;;;;5107130;28;20100;-89
2021/03/16 08:04:06;;;;;;;13.75;3.08;;;7.00;89.90;;;;;;5101678;28;20047;-90
2021/03/16 08:06:34;;;;;;;15.55;2.05;;;7.00;88.80;;;;;;5097050;28;20043;-88
2021/03/16 08:09:00;;;;;;;15.57;1.90;;;7.00;88.90;;;;;;5083042;28;20827;-88
2021/03/16 08:11:41;;;;;;;14.15;2.20;;;7.20;87.30;;;;;;5097602;28;20052;-88
2021/03/16 08:14:08;;;;;;;12.60;2.50;;;7.20;87.60;;;;;;5095059;28;20082;-88
2021/03/16 08:16:37;;;;;;;12.02;1.60;;;7.30;86.30;;;;;;5085859;28;20044;-87
2021/03/16 08:19:34;;;;;;;9.85;1.75;;;7.30;85.50;;;;;;5079614;28;20082;-88
2021/03/16 08:22:01;;;;;;;11.35;2.38;;;7.30;84.80;;;;;;5071150;28;20589;-89
2021/03/16 08:24:40;;;;;;;8.40;1.70;;;7.30;86.00;;;;;;5068089;28;20048;-89
2021/03/16 08:27:14;;;;;;;5.00;1.52;;;7.40;84.50;;;;;;5086189;28;20048;-89
2021/03/16 08:29:47;;;;;;;8.35;2.05;;;7.40;83.30;;;;;;5085850;28;20062;-87
2021/03/16 08:32:15;;;;;;;5.50;1.50;;;7.40;82.90;;;;;;5094234;28;20040;-88
2021/03/16 08:34:42;;;;;;;7.25;1.60;;;7.40;82.90;;;;;;5057116;28;20049;-88
2021/03/16 08:37:29;;;;;;;12.00;2.17;;;7.40;81.70;;;;;;5082689;28;20105;-88
2021/03/16 08:39:55;;;;;;;11.60;1.88;;;7.30;82.40;;;;;;5085716;28;20044;-89
2021/03/16 08:42:24;;;;;;;9.63;1.38;;;7.20;83.40;;;;;;5085799;28;20051;-90
2021/03/16 08:44:51;;;;;;;13.98;1.83;;;7.20;83.60;;;;;;5065295;28;20492;-87
2021/03/16 08:47:19;;;;;;;12.32;2.10;;;7.20;83.50;;;;;;5051544;28;20048;-86
2021/03/16 08:49:47;;;;;;;7.22;1.40;;;7.20;83.90;;;;;;5056842;28;20182;-86
2021/03/16 08:52:22;;;;;;;10.45;1.40;;;7.20;83.50;;;;;;5086653;28;20407;-86
2021/03/16 08:54:51;;;;;;;9.90;1.88;;;7.30;83.60;;;;;;5087432;28;20059;-86
2021/03/16 08:57:24;;;;;;;9.65;1.65;;;7.30;82.90;;;;;;5098467;28;20040;-86
2021/03/16 08:59:56;;;;;;;17.10;2.40;;;7.20;83.50;;;;;;5067383;28;20049;-86
2021/03/16 09:02:31;;;;;;;5.45;1.08;;;7.30;84.50;;;;;;5076879;28;20047;-86
2021/03/16 09:04:57;;;;;;;9.03;1.87;;;7.40;83.20;;;;;;5079286;28;20049;-84
2021/03/16 09:07:29;;;;;;;10.20;2.20;;;7.50;82.20;;;;;;5068592;28;20332;-85
2021/03/16 09:10:31;;;;;;;12.32;1.70;;;7.40;82.20;;;;;;5068824;28;20044;-85
2021/03/16 09:12:57;;;;;;;9.65;2.22;;;7.50;81.50;;;;;;5031302;28;20400;-86
2021/03/16 09:15:31;;;;;;;10.82;1.88;;;7.50;80.80;;;;;;5098045;28;20044;-85
2021/03/16 09:18:02;;;;;;;5.63;1.55;;;7.50;81.50;;;;;;5082881;28;20083;-85
2021/03/16 09:20:37;;;;;;;7.38;1.70;;;7.60;81.80;;;;;;5096311;28;20175;-85
2021/03/16 09:23:13;;;;;;;10.35;2.00;;;7.70;81.80;;;;;;5074421;28;20063;-85
2021/03/16 09:25:46;;;;;;;7.35;1.50;;;8.00;80.90;;;;;;5065228;28;20090;-86
2021/03/16 09:28:14;;;;;;;12.38;1.83;;;8.20;80.60;;;;;;5073186;28;20048;-84
2021/03/16 09:30:55;;;;;;;10.70;1.90;;;8.30;78.70;;;;;;5075536;28;20041;-82
2021/03/16 09:33:23;;;;;;;5.65;1.45;;;8.40;80.40;;;;;;5088758;28;20097;-84
2021/03/16 09:36:00;;;;;;;9.05;1.85;;;8.40;78.30;;;;;;5078384;28;20063;-84
2021/03/16 09:38:27;;;;;;;10.75;1.65;;;8.40;78.70;;;;;;5069079;28;20135;-84
2021/03/16 09:40:54;;;;;;;7.60;1.70;;;8.50;78.60;;;;;;5069898;28;20050;-85
2021/03/16 09:43:25;;;;;;;10.57;1.92;;;8.50;79.10;;;;;;5066607;28;20128;-85
2021/03/16 09:45:59;;;;;;;9.52;1.50;;;8.60;78.30;;;;;;5093243;28;20040;-85
2021/03/16 09:48:25;;;;;;;10.75;1.35;;;8.50;77.60;;;;;;5080636;28;20048;-85
2021/03/16 09:50:53;;;;;;;11.30;1.58;;;8.40;75.30;;;;;;5068525;28;20058;-85
2021/03/16 09:53:19;;;;;;;12.00;1.33;;;8.20;75.70;;;;;;5076265;28;20082;-85
2021/03/16 09:55:55;;;;;;;7.40;1.80;;;8.10;78.00;;;;;;5080465;28;20483;-85
2021/03/16 09:58:26;;;;;;;10.65;1.90;;;8.00;78.00;;;;;;5081908;28;20182;-85
2021/03/16 10:00:53;;;;;;;6.40;1.50;;;7.90;77.10;;;;;;5092047;28;20044;-85
2021/03/16 10:03:20;;;;;;;10.65;1.65;;;7.90;79.10;;;;;;5064553;28;20039;-85
2021/03/16 10:05:47;;;;;;;6.07;1.20;;;8.00;77.90;;;;;;5084112;28;20194;-87
2021/03/16 10:08:23;;;;;;;7.60;1.98;;;8.10;77.90;;;;;;5093243;27;20478;-84
2021/03/16 10:10:49;;;;;;;8.88;1.55;;;8.20;78.60;;;;;;5091248;28;20055;-85
2021/03/16 10:13:16;;;;;;;7.28;1.60;;;8.60;77.20;;;;;;5101548;28;20535;-85
2021/03/16 10:15:44;;;;;;;11.82;1.90;;;8.50;76.20;;;;;;5085167;28;20048;-84
2021/03/16 10:18:15;;;;;;;9.77;1.90;;;8.50;76.30;;;;;;5075097;28;20055;-85
2021/03/16 10:20:44;;;;;;;7.20;1.30;;;8.40;77.20;;;;;;5075681;28;20039;-85
2021/03/16 10:23:15;;;;;;;8.05;1.83;;;8.60;76.10;;;;;;5074195;28;20055;-84
2021/03/16 10:25:41;;;;;;;5.25;1.40;;;8.70;75.10;;;;;;5094555;28;20067;-85
2021/03/16 10:28:12;;;;;;;7.63;1.73;;;8.80;74.50;;;;;;5065966;28;20520;-85
2021/03/16 10:30:44;;;;;;;13.35;1.77;;;8.80;73.50;;;;;;5085268;28;20048;-84
2021/03/16 10:33:12;;;;;;;6.88;1.80;;;8.80;75.20;;;;;;5092504;28;20071;-84
2021/03/16 10:35:40;;;;;;;10.90;1.73;;;8.80;72.80;;;;;;5075952;28;20064;-85
2021/03/16 10:38:07;;;;;;;8.57;1.67;;;8.80;73.80;;;;;;5087747;28;20137;-85
2021/03/16 10:40:34;;;;;;;8.45;1.63;;;8.80;74.70;;;;;;5084215;28;20421;-85
2021/03/16 10:43:00;;;;;;;6.03;1.95;;;8.70;74.30;;;;;;5053471;28;20124;-86
2021/03/16 10:45:27;;;;;;;12.52;2.05;;;8.80;74.40;;;;;;5085222;28;20043;-85
2021/03/16 10:47:54;;;;;;;3.70;1.65;;;8.90;75.70;;;;;;5081145;28;20511;-84
2021/03/16 10:50:20;;;;;;;9.63;2.10;;;9.20;74.10;;;;;;5067864;28;20051;-85
2021/03/16 10:52:47;;;;;;;8.25;1.90;;;;;;;;;;5057028;28;20115;-86
2021/03/16 10:55:14;;;;;;;9.50;1.27;;;;;;;;;;5082107;28;20134;-85
2021/03/16 10:57:40;;;;;;;6.88;1.52;;;;;;;;;;5090842;28;20131;-85
2021/03/16 11:00:08;;;;;;;4.35;1.13;;;;;;;;;;5070480;28;20048;-84
2021/03/16 11:02:34;;;;;;;9.88;1.58;;;;;;;;;;5039099;28;20054;-85
2021/03/16 11:05:01;;;;;;;10.10;1.85;;;;;;;;;;5066902;28;20056;-85
2021/03/16 11:07:27;;;;;;;8.93;1.90;;;;;;;;;;5081801;28;20063;-84
2021/03/16 11:09:53;;;;;;;5.28;1.40;;;;;;;;;;5066586;28;20052;-85
2021/03/16 11:12:20;;;;;;;10.00;1.70;;;;;;;;;;5091564;28;20047;-84
2021/03/16 11:14:46;;;;;;;6.32;1.40;;;9.40;69.80;;;;;;5083939;28;20070;-86
2021/03/16 11:17:12;;;;;;;7.13;1.45;;;9.50;71.20;;;;;;5096114;28;20076;-84
2021/03/16 11:19:40;;;;;;;6.53;1.30;;;9.60;69.10;;;;;;5089235;28;20083;-85
2021/03/16 11:22:05;;;;;;;5.93;1.25;;;9.40;68.00;;;;;;5069445;28;20040;-85
2021/03/16 11:24:31;;;;;;;8.43;1.88;;;9.30;67.70;;;;;;5078209;28;20435;-84
2021/03/16 11:26:57;;;;;;;6.78;1.20;;;9.30;70.10;;;;;;5067582;28;20873;-85
2021/03/16 11:29:23;;;;;;;6.05;1.40;;;9.40;68.20;;;;;;5073578;28;20097;-84
2021/03/16 11:31:49;;;;;;;5.13;1.58;;;9.40;66.70;;;;;;5088342;28;20052;-87
2021/03/16 11:34:15;;;;;;;6.13;1.50;;;9.30;66.30;;;;;;5104423;28;20480;-85
2021/03/16 11:36:41;;;;;;;5.28;1.10;;;9.10;68.40;;;;;;5078155;28;20052;-85
2021/03/16 11:39:06;;;;;;;5.63;1.77;;;9.30;66.30;;;;;;5088643;28;20090;-85
2021/03/16 11:41:32;;;;;;;5.35;1.25;;;9.40;68.10;;;;;;5104766;28;20093;-85
2021/03/16 11:43:58;;;;;;;3.90;1.15;;;9.40;67.80;;;;;;5095152;28;20055;-85
2021/03/16 11:46:24;;;;;;;3.97;1.20;;;9.50;68.60;;;;;;5094758;28;20457;-85
2021/03/16 11:48:50;;;;;;;9.30;1.50;;;9.60;67.40;;;;;;5092448;28;20051;-85
2021/03/16 11:51:16;;;;;;;7.13;1.55;;;9.50;66.10;;;;;;5096698;28;20051;-88
2021/03/16 11:53:43;;;;;;;6.90;1.70;;;9.30;66.10;;;;;;5097052;28;20493;-89
2021/03/16 11:56:08;;;;;;;10.43;1.30;;;9.30;69.10;;;;;;5105120;28;20047;-87
2021/03/16 11:58:34;;;;;;;7.65;1.52;;;9.20;68.30;;;;;;5101484;28;20043;-89
2021/03/16 12:01:01;;;;;;;7.13;1.73;;;9.10;68.30;;;;;;5094432;28;20491;-89
2021/03/16 12:03:28;;;;;;;5.65;1.45;;;9.30;69.80;;;;;;5056925;28;20051;-90
2021/03/16 12:05:54;;;;;;;7.55;1.30;;;9.50;67.50;;;;;;5075665;28;20450;-88
2021/03/16 12:08:21;;;;;;;5.28;1.30;;;9.60;64.40;;;;;;5091449;28;20456;-89
2021/03/16 12:10:47;;;;;;;4.40;1.35;;;9.50;66.50;;;;;;5062734;28;20557;-85
2021/03/16 12:13:13;;;;;;;6.13;1.25;;;9.50;66.10;;;;;;5079184;28;20040;-86
2021/03/16 12:15:39;;;;;;;10.20;1.80;;;9.60;65.70;;;;;;5085973;28;20067;-85
2021/03/16 12:18:05;;;;;;;4.45;1.00;;;9.60;66.30;;;;;;5082877;28;20048;-85
2021/03/16 12:20:31;;;;;;;8.43;1.48;;;9.70;65.90;;;;;;5084346;28;20090;-85
2021/03/16 12:22:57;;;;;;;5.90;1.30;;;9.60;67.50;;;;;;5080597;28;20434;-85
2021/03/16 12:25:23;;;;;;;7.88;1.85;;;9.50;66.70;;;;;;5089463;28;20054;-85
2021/03/16 12:27:51;;;;;;;7.47;1.30;;;9.40;67.40;;;;;;5081861;28;20054;-85
2021/03/16 12:30:18;;;;;;;6.50;1.40;;;9.50;68.00;;;;;;5072092;28;20071;-86
2021/03/16 12:32:43;;;;;;;5.93;1.33;;;9.60;68.70;;;;;;5083815;28;20050;-86
2021/03/16 12:35:12;;;;;;;5.88;1.13;;;9.70;68.20;;;;;;5099747;28;20040;-86
2021/03/16 12:37:38;;;;;;;8.27;1.42;;;9.90;68.50;;;;;;5087020;28;20109;-84
2021/03/16 12:40:04;;;;;;;4.82;1.02;;;9.80;67.40;;;;;;5102252;28;20056;-87
2021/03/16 12:42:31;;;;;;;6.15;1.45;;;9.90;66.20;;;;;;5096448;28;20051;-86
2021/03/16 12:44:57;;;;;;;3.03;1.20;;;9.90;66.20;;;;;;5097580;28;20053;-86
2021/03/16 12:47:24;;;;;;;7.93;1.45;;;10.00;65.90;;;;;;5070349;28;20067;-86
2021/03/16 12:49:50;;;;;;;4.80;1.65;;;10.10;67.40;;;;;;5093917;28;20052;-86
2021/03/16 12:52:16;;;;;;;8.48;1.67;;;10.10;66.70;;;;;;5093470;28;20035;-86
2021/03/16 12:54:43;;;;;;;5.50;1.35;;;10.20;66.30;;;;;;5104959;28;20654;-87
2021/03/16 12:57:09;;;;;;;8.55;1.58;;;10.30;64.20;;;;;;5102603;28;20048;-86
2021/03/16 12:59:35;;;;;;;3.45;0.80;;;10.30;64.80;;;;;;5104501;28;20043;-86